Αρχική σελίδα
METAR-TAF:

METAR-TAF

Αεροδρόμια :

Ντακάρ, Σενεγάλη

γεωγραφικό πλάτος: 14-44N, γεωγραφικό μήκος: 017-30W, υψόμετρο: 27 μ

Παρών καιρός

Η αναφορά έγινε 19 λεπτά πριν, στις 08:00 UTC
Άνεμος 8 kt από Β/BΔ
Θερμοκρασία 23°C
Υγρασία 89%
Πίεση 1012 hPa
Ορατότητα 10 χλμ και άνω
Λίγα νέφη σε ύψος 1300 πόδια

METAR: GOOY 250800Z 34008KT 9999 FEW013 23/21 Q1012

Χρόνος: 08:19 (08:19 UTC)

Πρόγνωση Καιρού

Η αναφορά έγινε 2 ώρες και 49 λεπτά πριν, στις 05:30 UTC
Η πρόγνωση ισχύει από τις 25 στις 06 UTC έως τις 26 στις 12 UTC
Άνεμος 8 kt από Δ
Ορατότητα: 8000 μ
Αρκετά νέφη σε ύψος 1300 πόδια

TAF: GOOY 250530Z 2506/2612 28008KT 8000 BKN013

Μετεωρολογικές αναφορές και προγνώσεις για περισσότερα από 4000 αεροδρόμια (δελτία METAR και TAF).

Οι διαθέσιμοι σταθμοί απεικονίζονται στο χάρτη με κίτρινες και κόκκινες κουκκίδες.

Μετακινήστε το ποντίκι πάνω από τις κουκκίδες για να δείτε το όνομα του σταθμού.

Στη συνέχεια, κάντε κλικ για να δείτε τις μετεωρολογικές αναφορές και τις προγνώσεις καιρού.

Για να αλλάξετε το χάρτη: κάντε κλικ στα πράσινα κουμπιά με τον μαύρο σταυρό για να ζουμάρετε, στο πράσινο κουμπί με την παύλα για να αφαιρέσετε το ζουμ ή στα πράσινα βέλη για να αντιπαραβάλλετε χάρτες.


METAR-TAF: